createdAt,value
2023-04-18T00:00:07.842Z,101516.61
2023-04-18T00:01:06.319Z,101513.38
2023-04-18T00:02:06.719Z,101515.73
2023-04-18T00:03:07.146Z,101515.16
2023-04-18T00:04:07.361Z,101519.27
2023-04-18T00:05:08.603Z,101513.54
2023-04-18T00:06:08.073Z,101511.45
2023-04-18T00:07:08.509Z,101512.7
2023-04-18T00:08:08.755Z,101514.06
2023-04-18T00:09:09.281Z,101512.3
2023-04-18T00:10:09.849Z,101514.95
2023-04-18T00:11:10.070Z,101510.69
2023-04-18T00:12:11.187Z,101512.48
2023-04-18T00:13:10.675Z,101510.84
2023-04-18T00:14:11.520Z,101512.58
2023-04-18T00:15:11.930Z,101511
2023-04-18T00:16:11.981Z,101511.17
2023-04-18T00:17:12.336Z,101507.44
2023-04-18T00:18:14.240Z,101508.81
2023-04-18T00:19:12.973Z,101507.14
2023-04-18T00:20:13.496Z,101504.95
2023-04-18T00:21:13.939Z,101506.62
2023-04-18T00:22:14.530Z,101507.2
2023-04-18T00:23:14.543Z,101506.61
2023-04-18T00:24:15.105Z,101506.55
2023-04-18T00:25:15.310Z,101508.88
2023-04-18T00:26:15.791Z,101509.52
2023-04-18T00:27:17.936Z,101507.28
2023-04-18T00:28:16.510Z,101506.92
2023-04-18T00:29:16.844Z,101505.14
2023-04-18T00:30:17.146Z,101504.64
2023-04-18T00:31:17.732Z,101508.7
2023-04-18T00:32:18.224Z,101509
2023-04-18T00:33:18.551Z,101509.83
2023-04-18T00:34:18.818Z,101507.65
2023-04-18T00:35:20.083Z,101514.78
2023-04-18T00:36:19.443Z,101513.43
2023-04-18T00:37:20.016Z,101516.56
2023-04-18T00:38:20.510Z,101512.73
2023-04-18T00:39:20.699Z,101517.34
2023-04-18T00:40:20.936Z,101514.36
2023-04-18T00:41:22.859Z,101518.26
2023-04-18T00:42:22.211Z,101514.05
2023-04-18T00:43:24.000Z,101514.46
2023-04-18T00:44:22.400Z,101515.86
2023-04-18T00:45:22.798Z,101511.97
2023-04-18T00:46:23.423Z,101510.94
2023-04-18T00:47:23.871Z,101507.94
2023-04-18T00:48:24.645Z,101506.39
2023-04-18T00:49:25.270Z,101505.67
2023-04-18T00:50:25.274Z,101505.89
2023-04-18T00:51:25.582Z,101510.67
2023-04-18T00:52:26.225Z,101504.38
2023-04-18T00:53:26.111Z,101507.66
2023-04-18T00:54:27.088Z,101507.57
2023-04-18T00:55:26.842Z,101505.14
2023-04-18T00:56:27.152Z,101507.37
2023-04-18T00:57:27.666Z,101507.33
2023-04-18T00:58:27.898Z,101504.75
2023-04-18T00:59:28.202Z,101505.13
2023-04-18T01:00:28.521Z,101504.98
2023-04-18T01:01:28.889Z,101504.13
2023-04-18T01:02:29.422Z,101504.88
2023-04-18T01:03:30.105Z,101502.95
2023-04-18T01:04:30.603Z,101502.31
2023-04-18T01:05:30.381Z,101501.45
2023-04-18T01:06:30.741Z,101504.42
2023-04-18T01:07:32.285Z,101507.09
2023-04-18T01:08:31.788Z,101506.27
2023-04-18T01:09:32.047Z,101506.22
2023-04-18T01:10:32.468Z,101508.38
2023-04-18T01:11:32.598Z,101510.53
2023-04-18T01:12:32.983Z,101512.47
2023-04-18T01:13:33.423Z,101513.69
2023-04-18T01:14:33.620Z,101513.85
2023-04-18T01:15:34.075Z,101514.55
2023-04-18T01:16:35.126Z,101512.17
2023-04-18T01:17:34.893Z,101511.41
2023-04-18T01:18:35.210Z,101514.05
2023-04-18T01:19:35.601Z,101513.38
2023-04-18T01:20:37.546Z,101515.27
2023-04-18T01:21:36.197Z,101510.15
2023-04-18T01:22:36.757Z,101513.38
2023-04-18T01:23:37.006Z,101512.87
2023-04-18T01:24:37.535Z,101514.92
2023-04-18T01:25:37.950Z,101513.47
2023-04-18T01:26:38.473Z,101515.52
2023-04-18T01:27:38.585Z,101515.14
2023-04-18T01:28:38.853Z,101513.42
2023-04-18T01:29:40.397Z,101517.53
2023-04-18T01:30:39.602Z,101518.73
2023-04-18T01:31:40.874Z,101516.8
2023-04-18T01:32:40.470Z,101514.52
2023-04-18T01:33:40.697Z,101518.02
2023-04-18T01:34:41.035Z,101519.28
2023-04-18T01:35:41.491Z,101517.5
2023-04-18T01:36:41.795Z,101514.41
2023-04-18T01:37:42.783Z,101514.61
2023-04-18T01:38:42.537Z,101516.38
2023-04-18T01:39:42.801Z,101516.7
2023-04-18T01:40:43.335Z,101516.45
2023-04-18T01:41:43.966Z,101516.45
2023-04-18T01:42:44.047Z,101515.63
2023-04-18T01:43:44.478Z,101516.71
2023-04-18T01:44:44.988Z,101518.15
2023-04-18T01:45:45.195Z,101516.25
2023-04-18T01:46:45.670Z,101514.86
2023-04-18T01:47:46.185Z,101516.03
2023-04-18T01:48:46.238Z,101512.69
2023-04-18T01:49:46.656Z,101514.52
2023-04-18T01:50:46.968Z,101513.89
2023-04-18T01:51:47.478Z,101511.18
2023-04-18T01:52:47.797Z,101509.08
2023-04-18T01:53:48.219Z,101511.9
2023-04-18T01:54:48.258Z,101511.06
2023-04-18T01:55:49.976Z,101512.98
2023-04-18T01:56:49.271Z,101508.44
2023-04-18T01:57:49.560Z,101509.3
2023-04-18T01:58:49.845Z,101508.51
2023-04-18T01:59:50.047Z,101510.85
2023-04-18T02:00:54.593Z,101509.91
2023-04-18T02:01:52.045Z,101509.69
2023-04-18T02:02:52.628Z,101503.06
2023-04-18T02:03:52.938Z,101505.06
2023-04-18T02:04:53.213Z,101506.02
2023-04-18T02:05:53.373Z,101505.36
2023-04-18T02:06:53.947Z,101502
2023-04-18T02:07:54.136Z,101504.37
2023-04-18T02:08:54.615Z,101504.62
2023-04-18T02:09:54.875Z,101506.52
2023-04-18T02:10:55.209Z,101504.16
2023-04-18T02:11:55.571Z,101507
2023-04-18T02:12:56.232Z,101505.32
2023-04-18T02:13:56.302Z,101509.96
2023-04-18T02:14:56.591Z,101504.44
2023-04-18T02:15:57.021Z,101504.1
2023-04-18T02:16:58.177Z,101503.88
2023-04-18T02:17:57.960Z,101505.25
2023-04-18T02:18:58.188Z,101503.93
2023-04-18T02:19:59.088Z,101504.73
2023-04-18T02:20:58.772Z,101508.84
2023-04-18T02:21:59.146Z,101508.19
2023-04-18T02:23:02.999Z,101505.59
2023-04-18T02:24:00.289Z,101509.12
2023-04-18T02:25:00.607Z,101508.14
2023-04-18T02:26:01.121Z,101507.44
2023-04-18T02:27:01.332Z,101511.75
2023-04-18T02:28:01.916Z,101509.75
2023-04-18T02:29:02.306Z,101509.89
2023-04-18T02:30:02.687Z,101510.55
2023-04-18T02:31:02.759Z,101509.48
2023-04-18T02:32:03.379Z,101513.25
2023-04-18T02:33:03.619Z,101508.23
2023-04-18T02:34:04.039Z,101508.43
2023-04-18T02:35:04.976Z,101507.91
2023-04-18T02:36:05.850Z,101504.62
2023-04-18T02:37:05.248Z,101506.59
2023-04-18T02:38:05.508Z,101506.38
2023-04-18T02:39:05.935Z,101507.88
2023-04-18T02:40:07.358Z,101510.02
2023-04-18T02:41:06.544Z,101508.55
2023-04-18T02:42:07.019Z,101509.64
2023-04-18T02:43:07.171Z,101507.75
2023-04-18T02:44:08.653Z,101506.84
2023-04-18T02:45:08.647Z,101508.09
2023-04-18T02:46:08.354Z,101503.97
2023-04-18T02:47:08.751Z,101505.23
2023-04-18T02:48:08.952Z,101505.14
2023-04-18T02:49:09.367Z,101508.77
2023-04-18T02:50:10.620Z,101506.69
2023-04-18T02:51:09.982Z,101506.57
2023-04-18T02:52:10.309Z,101504.79
2023-04-18T02:53:10.922Z,101505.75
2023-04-18T02:54:11.191Z,101505.34
2023-04-18T02:55:11.289Z,101504.73
2023-04-18T02:56:11.843Z,101507.73
2023-04-18T02:57:12.181Z,101503.22
2023-04-18T02:58:12.597Z,101506.9
2023-04-18T02:59:12.907Z,101502.84
2023-04-18T03:00:14.259Z,101500.2
2023-04-18T03:01:13.630Z,101504.84
2023-04-18T03:02:14.078Z,101502.81
2023-04-18T03:03:14.471Z,101499.77
2023-04-18T03:04:14.924Z,101498.06
2023-04-18T03:05:15.001Z,101497.98
2023-04-18T03:06:15.368Z,101499.91
2023-04-18T03:07:15.650Z,101494.01
2023-04-18T03:08:16.179Z,101500.42
2023-04-18T03:09:16.658Z,101494.89
2023-04-18T03:10:16.888Z,101491.16
2023-04-18T03:11:16.993Z,101494.2
2023-04-18T03:12:17.511Z,101494.09
2023-04-18T03:13:17.921Z,101499.38
2023-04-18T03:14:18.223Z,101495.6
2023-04-18T03:15:18.754Z,101496.02
2023-04-18T03:16:19.046Z,101498.06
2023-04-18T03:17:19.493Z,101500.12
2023-04-18T03:18:19.505Z,101499.27
2023-04-18T03:19:19.958Z,101497.49
2023-04-18T03:20:20.930Z,101500.89
2023-04-18T03:21:20.736Z,101500.72
2023-04-18T03:22:21.153Z,101500.14
2023-04-18T03:23:21.477Z,101500.98
2023-04-18T03:24:21.972Z,101504.2
2023-04-18T03:25:22.098Z,101501.02
2023-04-18T03:26:24.400Z,101504.36
2023-04-18T03:27:22.813Z,101507.9
2023-04-18T03:28:23.250Z,101506.06
2023-04-18T03:29:23.563Z,101504.91
2023-04-18T03:30:24.023Z,101504.25
2023-04-18T03:31:24.353Z,101505.46
2023-04-18T03:32:24.891Z,101503.92
2023-04-18T03:33:24.951Z,101503.62
2023-04-18T03:34:25.427Z,101504.45
2023-04-18T03:35:25.746Z,101505.46
2023-04-18T03:36:26.097Z,101509.55
2023-04-18T03:37:26.479Z,101505.73
2023-04-18T03:38:26.795Z,101510.45
2023-04-18T03:39:27.195Z,101511.49
2023-04-18T03:40:27.390Z,101512.98
2023-04-18T03:41:27.839Z,101515.42
2023-04-18T03:42:28.444Z,101512.81
2023-04-18T03:43:28.656Z,101515.39
2023-04-18T03:44:28.888Z,101515.71
2023-04-18T03:45:29.291Z,101513.7
2023-04-18T03:46:29.782Z,101516.08
2023-04-18T03:47:31.994Z,101518.91
2023-04-18T03:48:30.231Z,101517.58
2023-04-18T03:49:30.509Z,101518.33
2023-04-18T03:50:30.872Z,101520.55
2023-04-18T03:51:33.752Z,101521.82
2023-04-18T03:52:31.598Z,101520.09
2023-04-18T03:53:32.117Z,101520.85
2023-04-18T03:54:32.414Z,101517.06
2023-04-18T03:55:33.368Z,101522.7
2023-04-18T03:56:33.225Z,101523.11
2023-04-18T03:57:33.372Z,101519.55
2023-04-18T03:58:33.830Z,101519.5
2023-04-18T03:59:34.192Z,101519.17
2023-04-18T04:00:34.524Z,101518.3
2023-04-18T04:01:34.808Z,101520.33
2023-04-18T04:02:35.248Z,101519.23
2023-04-18T04:03:35.552Z,101515.98
2023-04-18T04:04:35.947Z,101515.06
2023-04-18T04:05:36.193Z,101515.84
2023-04-18T04:06:36.709Z,101518.26
2023-04-18T04:07:36.993Z,101516.45
2023-04-18T04:08:37.167Z,101518.14
2023-04-18T04:09:37.651Z,101519.12
2023-04-18T04:10:37.966Z,101521.44
2023-04-18T04:11:38.481Z,101522.73
2023-04-18T04:12:38.803Z,101523.89
2023-04-18T04:13:39.113Z,101522.69
2023-04-18T04:14:39.415Z,101522.29
2023-04-18T04:15:39.833Z,101520.04
2023-04-18T04:16:40.199Z,101524.51
2023-04-18T04:17:40.514Z,101526.08
2023-04-18T04:18:40.780Z,101522.81
2023-04-18T04:19:41.306Z,101523.53
2023-04-18T04:20:41.458Z,101522.9
2023-04-18T04:21:41.822Z,101522.27
2023-04-18T04:22:42.253Z,101525.02
2023-04-18T04:23:42.822Z,101524.8
2023-04-18T04:24:43.173Z,101521.88
2023-04-18T04:25:43.182Z,101526.13
2023-04-18T04:26:43.695Z,101526.57
2023-04-18T04:27:43.926Z,101528.19
2023-04-18T04:28:44.334Z,101528.92
2023-04-18T04:29:44.697Z,101530.78
2023-04-18T04:30:44.942Z,101530.47
2023-04-18T04:31:45.485Z,101524.91
2023-04-18T04:32:45.694Z,101526.64
2023-04-18T04:33:46.117Z,101525.55
2023-04-18T04:34:46.505Z,101525.28
2023-04-18T04:35:47.769Z,101525.22
2023-04-18T04:36:47.461Z,101529.97
2023-04-18T04:37:48.606Z,101526.22
2023-04-18T04:38:48.484Z,101522.94
2023-04-18T04:39:49.522Z,101522.78
2023-04-18T04:40:49.654Z,101521.69
2023-04-18T04:41:49.679Z,101519.39
2023-04-18T04:42:50.623Z,101521.14
2023-04-18T04:43:50.356Z,101523.5
2023-04-18T04:44:50.738Z,101526.94
2023-04-18T04:45:51.016Z,101524.88
2023-04-18T04:46:51.304Z,101528.23
2023-04-18T04:47:51.677Z,101523.65
2023-04-18T04:48:52.023Z,101526.67
2023-04-18T04:49:52.528Z,101527.18
2023-04-18T04:50:55.107Z,101525.03
2023-04-18T04:51:53.295Z,101526.59
2023-04-18T04:52:53.450Z,101527.52
2023-04-18T04:53:53.923Z,101529.91
2023-04-18T04:54:54.324Z,101530.3
2023-04-18T04:55:54.743Z,101528.91
2023-04-18T04:56:54.950Z,101529.69
2023-04-18T04:57:55.663Z,101528.18
2023-04-18T04:58:55.783Z,101525.8
2023-04-18T04:59:56.089Z,101525.14
2023-04-18T05:00:56.505Z,101524.83
2023-04-18T05:01:56.845Z,101526.95
2023-04-18T05:02:57.417Z,101530.16
2023-04-18T05:03:57.794Z,101526.76
2023-04-18T05:04:57.978Z,101528.35
2023-04-18T05:05:58.394Z,101524.94
2023-04-18T05:06:58.713Z,101530.03
2023-04-18T05:07:59.122Z,101528.22
2023-04-18T05:08:59.332Z,101524.19
2023-04-18T05:09:59.879Z,101522.53
2023-04-18T05:11:02.125Z,101521.48
2023-04-18T05:12:00.587Z,101522.8
2023-04-18T05:13:00.993Z,101522.57
2023-04-18T05:14:01.322Z,101521.7
2023-04-18T05:15:01.931Z,101523.98
2023-04-18T05:16:02.133Z,101524.31
2023-04-18T05:17:02.704Z,101523.34
2023-04-18T05:18:03.156Z,101530.64
2023-04-18T05:19:03.086Z,101529.72
2023-04-18T05:20:04.337Z,101527.91
2023-04-18T05:21:04.427Z,101529
2023-04-18T05:22:04.431Z,101528.77
2023-04-18T05:23:04.598Z,101528.78
2023-04-18T05:24:05.162Z,101530.91
2023-04-18T05:25:06.334Z,101525.91
2023-04-18T05:26:06.205Z,101528.83
2023-04-18T05:27:06.269Z,101521.97
2023-04-18T05:28:06.514Z,101524.36
2023-04-18T05:29:06.942Z,101522.09
2023-04-18T05:30:08.209Z,101527.62
2023-04-18T05:31:07.723Z,101524.48
2023-04-18T05:32:08.184Z,101522.14
2023-04-18T05:33:08.453Z,101523.58
2023-04-18T05:34:08.705Z,101526.19
2023-04-18T05:35:09.492Z,101527.59
2023-04-18T05:36:09.647Z,101524.97
2023-04-18T05:37:09.969Z,101527.64
2023-04-18T05:38:10.235Z,101527.81
2023-04-18T05:39:10.657Z,101523.83
2023-04-18T05:40:12.660Z,101524.52
2023-04-18T05:41:11.393Z,101523.83
2023-04-18T05:42:11.858Z,101525.3
2023-04-18T05:43:12.969Z,101524.05
2023-04-18T05:44:12.683Z,101530.85
2023-04-18T05:45:12.976Z,101526.46
2023-04-18T05:46:13.443Z,101530.73
2023-04-18T05:47:13.801Z,101529.52
2023-04-18T05:48:14.656Z,101529.38
2023-04-18T05:49:14.551Z,101530.91
2023-04-18T05:50:14.974Z,101528.66
2023-04-18T05:51:15.249Z,101525.8
2023-04-18T05:52:15.650Z,101521.03
2023-04-18T05:53:16.121Z,101523.55
2023-04-18T05:54:17.056Z,101525.52
2023-04-18T05:55:17.067Z,101524.96
2023-04-18T05:56:17.057Z,101520.92
2023-04-18T05:57:17.585Z,101527.03
2023-04-18T05:58:18.084Z,101521.23
2023-04-18T05:59:18.300Z,101525.44
2023-04-18T06:00:19.870Z,101522.48
2023-04-18T06:01:19.353Z,101520.73
2023-04-18T06:02:19.765Z,101521.36
2023-04-18T06:03:20.160Z,101524.19
2023-04-18T06:04:21.285Z,101522.64
2023-04-18T06:05:20.943Z,101516.55
2023-04-18T06:06:21.942Z,101518.75
2023-04-18T06:07:21.600Z,101519.03
2023-04-18T06:08:21.899Z,101518.89
2023-04-18T06:09:22.205Z,101517.58
2023-04-18T06:10:22.776Z,101521.48
2023-04-18T06:11:22.998Z,101520.83
2023-04-18T06:12:23.424Z,101521.19
2023-04-18T06:13:23.917Z,101522.2
2023-04-18T06:14:24.249Z,101517.81
2023-04-18T06:15:24.645Z,101519.54
2023-04-18T06:16:25.185Z,101521.55
2023-04-18T06:17:25.367Z,101522.82
2023-04-18T06:18:25.856Z,101518.64
2023-04-18T06:19:26.117Z,101519.64
2023-04-18T06:20:26.638Z,101517.38
2023-04-18T06:21:27.050Z,101516.77
2023-04-18T06:22:27.387Z,101515.77
2023-04-18T06:23:27.801Z,101521.96
2023-04-18T06:24:29.642Z,101517.38
2023-04-18T06:25:28.752Z,101518.62
2023-04-18T06:26:29.053Z,101521.64
2023-04-18T06:27:31.460Z,101521.11
2023-04-18T06:28:29.857Z,101521.53
2023-04-18T06:29:30.665Z,101522.56
2023-04-18T06:30:30.907Z,101525.45
2023-04-18T06:31:31.059Z,101523.84
2023-04-18T06:32:31.374Z,101520.62
2023-04-18T06:33:31.851Z,101520.72
2023-04-18T06:34:32.266Z,101519.17
2023-04-18T06:35:32.662Z,101522.43
2023-04-18T06:36:33.192Z,101522.16
2023-04-18T06:37:33.406Z,101517.19
2023-04-18T06:38:34.125Z,101520.78
2023-04-18T06:39:34.136Z,101517.12
2023-04-18T06:40:34.649Z,101516.16
2023-04-18T06:41:35.058Z,101522.15
2023-04-18T06:42:35.305Z,101522.83
2023-04-18T06:43:35.976Z,101521.31
2023-04-18T06:44:36.203Z,101524.33
2023-04-18T06:45:36.800Z,101526.41
2023-04-18T06:46:37.247Z,101522.57
2023-04-18T06:47:37.895Z,101520.84
2023-04-18T06:48:37.768Z,101525.08
2023-04-18T06:49:38.192Z,101523.97
2023-04-18T06:50:38.599Z,101521.06
2023-04-18T06:51:38.923Z,101522.81
2023-04-18T06:52:39.445Z,101518.02
2023-04-18T06:53:39.685Z,101520.43
2023-04-18T06:54:40.167Z,101518.45
2023-04-18T06:55:40.654Z,101515.97
2023-04-18T06:56:41.002Z,101516.88
2023-04-18T06:57:42.253Z,101513.53
2023-04-18T06:58:41.734Z,101514.15
2023-04-18T06:59:42.257Z,101514.06
2023-04-18T07:00:43.117Z,101510.92
2023-04-18T07:01:42.995Z,101515.98
2023-04-18T07:02:43.580Z,101512.41
2023-04-18T07:03:44.049Z,101511.09
2023-04-18T07:04:44.378Z,101510.73
2023-04-18T07:05:44.756Z,101511.25
2023-04-18T07:06:45.008Z,101510.81
2023-04-18T07:07:45.448Z,101506.33
2023-04-18T07:08:45.717Z,101506.82
2023-04-18T07:09:46.305Z,101506.82
2023-04-18T07:10:46.683Z,101502.41
2023-04-18T07:11:47.260Z,101504.82
2023-04-18T07:12:47.560Z,101507.12
2023-04-18T07:13:47.865Z,101504.73
2023-04-18T07:14:48.460Z,101506.8
2023-04-18T07:15:49.327Z,101503.39
2023-04-18T07:16:49.380Z,101504.65
2023-04-18T07:17:49.560Z,101508.62
2023-04-18T07:18:50.058Z,101505.21
2023-04-18T07:19:50.224Z,101502.31
2023-04-18T07:20:50.784Z,101503.42
2023-04-18T07:21:51.202Z,101492.36
2023-04-18T07:22:51.447Z,101495.44
2023-04-18T07:23:51.922Z,101496.43
2023-04-18T07:24:52.456Z,101495.31
2023-04-18T07:25:52.870Z,101495.4
2023-04-18T07:26:55.050Z,101491.81
2023-04-18T07:27:53.616Z,101494.92
2023-04-18T07:28:54.060Z,101497.58
2023-04-18T07:29:54.532Z,101491.63
2023-04-18T07:30:56.129Z,101497.84
2023-04-18T07:31:55.324Z,101500.23
2023-04-18T07:32:55.697Z,101498.2
2023-04-18T07:33:56.099Z,101498.73
2023-04-18T07:34:56.603Z,101502.41
2023-04-18T07:35:56.920Z,101499.82
2023-04-18T07:36:57.949Z,101498.11
2023-04-18T07:37:57.654Z,101499.23
2023-04-18T07:38:58.077Z,101496.41
2023-04-18T07:39:58.908Z,101499.41
2023-04-18T07:41:00.034Z,101493.22
2023-04-18T07:41:59.311Z,101498.66
2023-04-18T07:42:59.738Z,101500.9
2023-04-18T07:44:03.345Z,101493.3
2023-04-18T07:45:00.666Z,101495.16
2023-04-18T07:46:01.328Z,101495.59
2023-04-18T07:47:01.619Z,101493.83
2023-04-18T07:48:02.241Z,101494.25
2023-04-18T07:49:02.348Z,101494.36
2023-04-18T07:50:03.171Z,101492.78
2023-04-18T07:51:04.036Z,101491.91
2023-04-18T07:52:03.786Z,101494.45
2023-04-18T07:53:04.007Z,101497.45
2023-04-18T07:54:04.735Z,101495.48
2023-04-18T07:55:05.522Z,101496.38
2023-04-18T07:56:05.869Z,101495.31
2023-04-18T07:57:05.866Z,101493.66
2023-04-18T07:58:06.291Z,101492.61
2023-04-18T07:59:06.443Z,101488.92
2023-04-18T08:00:08.257Z,101485.12
2023-04-18T08:01:07.675Z,101487.45
2023-04-18T08:02:08.093Z,101484.09
2023-04-18T08:03:09.737Z,101484.03
2023-04-18T08:04:09.517Z,101482.12
2023-04-18T08:05:10.433Z,101488.36
2023-04-18T08:06:10.435Z,101487.5
2023-04-18T08:07:10.555Z,101488.36
2023-04-18T08:08:12.096Z,101489.7
2023-04-18T08:09:11.466Z,101491.23
2023-04-18T08:10:11.818Z,101484.59
2023-04-18T08:11:12.271Z,101480.59
2023-04-18T08:12:12.644Z,101486.8
2023-04-18T08:13:13.139Z,101482.88
2023-04-18T08:14:13.466Z,101476.83
2023-04-18T08:15:13.981Z,101480.91
2023-04-18T08:16:17.062Z,101481.94
2023-04-18T08:17:15.022Z,101477.97
2023-04-18T08:18:15.368Z,101483.82
2023-04-18T08:19:16.085Z,101482.59
2023-04-18T08:20:16.162Z,101481.28
2023-04-18T08:21:16.679Z,101481.72
2023-04-18T08:22:16.899Z,101486.94
2023-04-18T08:23:17.474Z,101477.12
2023-04-18T08:24:17.945Z,101482.25
2023-04-18T08:25:18.536Z,101482.12
2023-04-18T08:26:18.763Z,101477.71
2023-04-18T08:27:19.187Z,101478.3
2023-04-18T08:28:19.561Z,101475.55
2023-04-18T08:29:20.209Z,101483.25
2023-04-18T08:30:20.358Z,101477.52
2023-04-18T08:31:20.957Z,101472.05
2023-04-18T08:32:21.293Z,101474.19
2023-04-18T08:33:22.486Z,101473.56
2023-04-18T08:34:22.040Z,101471.91
2023-04-18T08:35:22.942Z,101470.66
2023-04-18T08:36:22.978Z,101473.06
2023-04-18T08:37:23.606Z,101475.05
2023-04-18T08:38:23.964Z,101468.59
2023-04-18T08:39:25.381Z,101470.08
2023-04-18T08:40:24.793Z,101468.4
2023-04-18T08:41:26.398Z,101467.93
2023-04-18T08:42:26.583Z,101464.38
2023-04-18T08:43:26.572Z,101462.3
2023-04-18T08:44:30.451Z,101460.88
2023-04-18T08:45:27.933Z,101463.16
2023-04-18T08:46:28.348Z,101458.12
2023-04-18T08:47:31.919Z,101452.74
2023-04-18T08:48:29.358Z,101455.95
2023-04-18T08:49:31.298Z,101453.31
2023-04-18T08:50:31.713Z,101452.16
2023-04-18T08:51:34.097Z,101457.64
2023-04-18T08:52:32.593Z,101454.34
2023-04-18T08:53:34.052Z,101451.83
2023-04-18T08:54:32.674Z,101452.39
2023-04-18T08:55:33.089Z,101453.42
2023-04-18T08:56:33.396Z,101452.52
2023-04-18T08:57:36.074Z,101443.97
2023-04-18T08:58:34.221Z,101445.17
2023-04-18T08:59:35.111Z,101444.78
2023-04-18T09:00:34.955Z,101446.78
2023-04-18T09:02:38.705Z,101439.7
2023-04-18T09:05:43.699Z,101443
2023-04-18T09:07:51.251Z,101437.69
2023-04-18T09:09:54.774Z,101438.34
2023-04-18T09:10:52.170Z,101438.48
2023-04-18T09:11:52.747Z,101443.42
2023-04-18T09:12:53.065Z,101437.73
2023-04-18T09:13:54.357Z,101439.92
2023-04-18T09:15:56.814Z,101437.3
2023-04-18T09:16:57.265Z,101432.56
2023-04-18T09:18:00.174Z,101433.25
2023-04-18T09:19:12.360Z,101432.55
2023-04-18T09:20:01.746Z,101434.61
2023-04-18T09:22:03.883Z,101427.23
2023-04-18T09:23:08.796Z,101428.66
2023-04-18T09:24:17.263Z,101429.48
2023-04-18T09:25:09.765Z,101426.3
2023-04-18T09:26:10.148Z,101421.24
2023-04-18T09:27:12.618Z,101428.73
2023-04-18T09:29:14.187Z,101432.91
2023-04-18T09:31:16.001Z,101429.02
2023-04-18T09:32:29.553Z,101429.53
2023-04-18T09:33:17.470Z,101433.2
2023-04-18T09:34:24.016Z,101427.61
2023-04-18T09:35:25.356Z,101426.78
2023-04-18T09:36:27.265Z,101430.02
2023-04-18T09:37:26.406Z,101425.48
2023-04-18T09:39:28.157Z,101426.69
2023-04-18T09:40:28.724Z,101424.49
2023-04-18T09:41:29.188Z,101424.77
2023-04-18T09:42:36.372Z,101422.2
2023-04-18T09:43:33.909Z,101417.41
2023-04-18T09:44:34.757Z,101418.49
2023-04-18T09:45:35.486Z,101408.79
2023-04-18T09:46:36.074Z,101409.31
2023-04-18T09:47:36.075Z,101412.82
2023-04-18T09:48:36.234Z,101409.86
2023-04-18T09:49:36.441Z,101408.95
2023-04-18T09:50:40.220Z,101410.01
2023-04-18T09:51:40.230Z,101412.52
2023-04-18T09:52:40.452Z,101410.62
2023-04-18T09:53:43.402Z,101408.16
2023-04-18T09:54:41.424Z,101403.88
2023-04-18T09:55:42.599Z,101410.05
2023-04-18T09:56:44.863Z,101404.89
2023-04-18T09:57:48.547Z,101411.36
2023-04-18T09:58:47.475Z,101414.41
2023-04-18T10:00:00.175Z,101416.52
2023-04-18T10:00:49.803Z,101407.69
2023-04-18T10:01:49.586Z,101400.08
2023-04-18T10:03:53.886Z,101400.77
2023-04-18T10:04:54.443Z,101401.39
2023-04-18T10:05:55.316Z,101398.23
2023-04-18T10:06:54.738Z,101397.97
2023-04-18T10:07:55.390Z,101399.05
2023-04-18T10:08:56.149Z,101397.69
2023-04-18T10:09:55.902Z,101402.59
2023-04-18T10:10:56.352Z,101393.12
2023-04-18T10:11:57.191Z,101393.04
2023-04-18T10:12:58.480Z,101392.07
2023-04-18T10:15:01.123Z,101394.24
2023-04-18T10:16:01.257Z,101387.66
2023-04-18T10:17:01.274Z,101386.48
2023-04-18T10:18:07.047Z,101395
2023-04-18T10:20:16.753Z,101389.02
2023-04-18T10:21:14.495Z,101387.02
2023-04-18T10:22:14.719Z,101383.55
2023-04-18T10:31:39.561Z,101385.89
2023-04-18T10:32:39.504Z,101382.08
2023-04-18T10:33:42.486Z,101381.82
2023-04-18T10:34:41.155Z,101375.95
2023-04-18T10:42:00.204Z,101372.77
2023-04-18T10:43:01.351Z,101370.45
2023-04-18T10:44:11.516Z,101370.91
2023-04-18T10:46:24.036Z,101378.66
2023-04-18T10:49:20.041Z,101367.75
2023-04-18T10:50:18.222Z,101374.56
2023-04-18T10:51:19.824Z,101371.19
2023-04-18T10:52:19.232Z,101377.55
2023-04-18T10:53:19.513Z,101373.59
2023-04-18T10:55:28.857Z,101371.95
2023-04-18T10:56:26.538Z,101375.12
2023-04-18T10:58:32.150Z,101364.13
2023-04-18T10:59:31.762Z,101367.43
2023-04-18T11:00:31.859Z,101366.33
2023-04-18T11:01:33.007Z,101363.09
2023-04-18T11:02:31.968Z,101364.27
2023-04-18T11:03:34.081Z,101356.38
2023-04-18T11:04:32.332Z,101366.7
2023-04-18T11:05:32.520Z,101361.75
2023-04-18T11:06:33.006Z,101358.7
2023-04-18T11:08:35.123Z,101362.11
2023-04-18T11:09:35.707Z,101355.34
2023-04-18T11:10:36.234Z,101355.69
2023-04-18T11:11:36.750Z,101354.81
2023-04-18T11:12:40.139Z,101348.3
2023-04-18T11:13:37.800Z,101354
2023-04-18T11:14:42.420Z,101350.3
2023-04-18T11:15:39.994Z,101346.27
2023-04-18T11:16:40.573Z,101351.55
2023-04-18T11:17:41.268Z,101347.41
2023-04-18T11:18:41.202Z,101346.7
2023-04-18T11:19:41.663Z,101351.2
2023-04-18T11:20:50.931Z,101352.56
2023-04-18T11:21:43.294Z,101356.31
2023-04-18T11:22:52.451Z,101358.55
2023-04-18T11:23:44.931Z,101346.66
2023-04-18T11:24:45.439Z,101342.95
2023-04-18T11:25:45.969Z,101336.42
2023-04-18T11:26:46.487Z,101338.27
2023-04-18T11:27:49.355Z,101342.16
2023-04-18T11:28:51.362Z,101345.83
2023-04-18T11:29:53.358Z,101338.33
2023-04-18T11:30:50.794Z,101339.09
2023-04-18T11:31:52.402Z,101342.34
2023-04-18T11:32:51.990Z,101339.31
2023-04-18T11:33:52.614Z,101331.94
2023-04-18T11:34:54.534Z,101335.14
2023-04-18T11:35:57.713Z,101335.19
2023-04-18T11:36:55.243Z,101333.97
2023-04-18T11:37:55.770Z,101338.2
2023-04-18T11:38:56.685Z,101332.05
2023-04-18T11:39:57.266Z,101334.97
2023-04-18T11:40:57.736Z,101338.59
2023-04-18T11:41:59.694Z,101336.19
2023-04-18T11:43:02.341Z,101331.6
2023-04-18T11:43:59.914Z,101329.47
2023-04-18T11:45:00.521Z,101332.08
2023-04-18T11:46:02.220Z,101329.23
2023-04-18T11:47:02.250Z,101330.52
2023-04-18T11:48:02.716Z,101333.05
2023-04-18T11:49:03.004Z,101331.7
2023-04-18T11:50:06.081Z,101326.52
2023-04-18T11:51:03.904Z,101326.95
2023-04-18T11:52:11.306Z,101325.95
2023-04-18T11:53:08.630Z,101323.45
2023-04-18T11:56:14.616Z,101321.52
2023-04-18T11:58:18.334Z,101320.98
2023-04-18T11:59:18.632Z,101314.48
2023-04-18T12:00:21.009Z,101312.44
2023-04-18T12:01:25.731Z,101312.89
2023-04-18T12:02:24.620Z,101304.41
2023-04-18T12:03:24.891Z,101305.36
2023-04-18T12:04:24.331Z,101307.2
2023-04-18T12:05:26.626Z,101309.94
2023-04-18T12:06:25.111Z,101310.06
2023-04-18T12:08:28.057Z,101313.63
2023-04-18T12:09:28.709Z,101305.44
2023-04-18T12:10:29.896Z,101310.13